KPBI

Palm Beach International Airport

West Palm Beach, Florida, USA
KPBI 200849Z 2009/2106 20011KT P6SM VCSH FEW050 SCT110 FM201100 24015KT 6SM SHRA SCT020 BKN100 TEMPO 2011/2014 BKN020 FM201500 29017KT P6SM SCT020 BKN030 FM201800 29017KT P6SM FEW035 SCT170 FM210000 30012KT P6SM SKC
Issued Valid From Valid To
Jan-20 @ 08:49 UTC
(3 hours ago)
Jan-20 @ 09:00 UTC
(2 hours ago)
Jan-21 @ 06:00 UTC
(in 19 hours)
Expired Click to View Jan-20 @ 09:00 to Jan-20 @ 11:00
KPBI 200849Z 2009/2106 20011KT P6SM VCSH FEW050 SCT110
Wind Visibility Clouds
200° at 11 knots Greater than 6 miles
  • Few at 5,000' AGL
  • Scattered at 11,000' AGL
Temporary Jan-20 @ 11:00 to Jan-20 @ 14:00
TEMPO 2011/2014 BKN020
Clouds
  • Broken at 2,000' AGL
From Jan-20 @ 11:00 to Jan-20 @ 15:00
FM201100 24015KT 6SM SHRA SCT020 BKN100
Wind Visibility Clouds Conditions
240° at 15 knots 6 miles
  • Scattered at 2,000' AGL
  • Broken at 10,000' AGL
  • Rain
From Jan-20 @ 15:00 to Jan-20 @ 18:00
FM201500 29017KT P6SM SCT020 BKN030
Wind Visibility Clouds
290° at 17 knots Greater than 6 miles
  • Scattered at 2,000' AGL
  • Broken at 3,000' AGL
From Jan-20 @ 18:00 to Jan-21 @ 00:00
FM201800 29017KT P6SM FEW035 SCT170
Wind Visibility Clouds
290° at 17 knots Greater than 6 miles
  • Few at 3,500' AGL
  • Scattered at 17,000' AGL
From Jan-21 @ 00:00 to Jan-21 @ 06:00
FM210000 30012KT P6SM SKC
Wind Visibility Clouds
300° at 12 knots Greater than 6 miles
  • Clear skies
KPBI 200849Z 2009/2106 20011KT P6SM VCSH FEW050 SCT110 FM201100 24015KT 6SM SHRA SCT020 BKN100 TEMPO 2011/2014 BKN020 FM201500 29017KT P6SM SCT020 BKN030 FM201800 29017KT P6SM FEW035 SCT170 FM210000 30012KT P6SM SKC
Issued Jan-20 @ 08:49 UTC
(3 hours ago)
Valid From Jan-20 @ 09:00 UTC
(2 hours ago)
Valid To Jan-21 @ 06:00 UTC
(in 19 hours)
Jan-20 @ 09:00 - Jan-20 @ 11:00
Wind Visibility
200° at 11 knots Greater than 6 miles
Clouds
  • Few at 5,000' AGL
  • Scattered at 11,000' AGL
Temporary Jan-20 @ 11:00 - Jan-20 @ 14:00
Clouds
  • Broken at 2,000' AGL
From Jan-20 @ 11:00 - Jan-20 @ 15:00
Wind Visibility
240° at 15 knots 6 miles
Clouds
  • Scattered at 2,000' AGL
  • Broken at 10,000' AGL
Conditions
  • Rain
From Jan-20 @ 15:00 - Jan-20 @ 18:00
Wind Visibility
290° at 17 knots Greater than 6 miles
Clouds
  • Scattered at 2,000' AGL
  • Broken at 3,000' AGL
From Jan-20 @ 18:00 - Jan-21 @ 00:00
Wind Visibility
290° at 17 knots Greater than 6 miles
Clouds
  • Few at 3,500' AGL
  • Scattered at 17,000' AGL
From Jan-21 @ 00:00 - Jan-21 @ 06:00
Wind Visibility
300° at 12 knots Greater than 6 miles
Clouds
  • Clear skies